Laida — EAVE — position and weather

sailwx.info

Track history (hours):
 
Tides and Currents Weather Stations Pressure Air Temp Water Temp Dewpoint Dewpoint Depression Visibility Wind Speed Wind Dir Waves Ship Positions

Laida

Last reported at 2017-Mar-20 11:18 UTC. Time now 2017-Mar-25 17:22 UTC.
Position N 50°34' W 005°47'.

Length 100 m; draft 5.2 m.

Type: Ship (hazmat cat B). MMSI: 224509000.

Date/timePositionNaut miles runAvg speedWind from/ knotsBaromVisibWave heightAir tempDewpointWater temp
2017-Mar-20 11:18N 50°34' W 005°47'6 8.6
2017-Mar-20 10:33N 50°38' W 005°38'8 7.9
2017-Mar-20 09:33N 50°43' W 005°29'7 7.1
2017-Mar-20 08:33N 50°47' W 005°20'8 7.6
2017-Mar-20 07:33N 50°51' W 005°10'9 8.5
2017-Mar-20 06:33N 50°56' W 004°59'9 9.3
2017-Mar-20 05:33N 51°02' W 004°47'10 9.6
2017-Mar-20 04:31N 51°08' W 004°35'5711.5
2017-Mar-19 23:33N 51°26' W 003°08'9 9.2
2017-Mar-19 22:33N 51°33' W 002°58'1 0.1
2017-Mar-19 15:13N 51°34' W 002°58'0 0.0
2017-Mar-19 13:22N 51°34' W 002°58'0 0.0
2017-Mar-19 12:22N 51°34' W 002°58'0 0.0
2017-Mar-19 11:28N 51°34' W 002°58'0 0.0
2017-Mar-19 08:25N 51°34' W 002°58'0 0.0
2017-Mar-19 07:19N 51°34' W 002°58'0 0.0
2017-Mar-19 06:31N 51°34' W 002°58'0 0.0
2017-Mar-19 05:31N 51°34' W 002°58'0 0.0
2017-Mar-19 04:19N 51°34' W 002°58'0 0.0
2017-Mar-19 03:31N 51°34' W 002°58'0 0.0
2017-Mar-19 02:31N 51°34' W 002°58'0 0.0
2017-Mar-19 01:25N 51°34' W 002°58'0 0.0
2017-Mar-19 00:31N 51°34' W 002°58'0 0.0
2017-Mar-18 23:25N 51°34' W 002°58'0 0.0
2017-Mar-18 14:31N 51°34' W 002°58'0 0.0
2017-Mar-18 11:28N 51°34' W 002°58'0 0.0
2017-Mar-18 10:31N 51°34' W 002°58'0 0.2
2017-Mar-18 09:33N 51°34' W 002°58'0 0.1
2017-Mar-18 07:33N 51°34' W 002°58'0 0.0
2017-Mar-18 06:33N 51°34' W 002°58'0 0.0
2017-Mar-18 05:29N 51°34' W 002°58'0 0.0
2017-Mar-18 04:33N 51°34' W 002°58'0 0.0
2017-Mar-18 03:33N 51°34' W 002°58'0 0.0
2017-Mar-18 02:33N 51°34' W 002°58'0 0.0
2017-Mar-18 01:33N 51°34' W 002°58'0 0.0
2017-Mar-18 00:33N 51°34' W 002°58'0 0.0
2017-Mar-17 23:29N 51°34' W 002°58'0 0.0
2017-Mar-17 22:33N 51°34' W 002°58'0 0.0
2017-Mar-17 21:33N 51°34' W 002°58'0 0.0
2017-Mar-17 20:05N 51°34' W 002°58'0 0.0
2017-Mar-17 19:29N 51°34' W 002°58'0 0.0
2017-Mar-17 18:23N 51°34' W 002°58'0 0.0
2017-Mar-17 17:29N 51°34' W 002°58'0 0.0
2017-Mar-17 16:29N 51°34' W 002°58'0 0.0
2017-Mar-17 15:33N 51°34' W 002°58'0 0.0
2017-Mar-17 14:23N 51°34' W 002°58'0 0.0
2017-Mar-17 13:29N 51°34' W 002°58'0 0.0
2017-Mar-17 12:33N 51°34' W 002°58'0 0.0
2017-Mar-17 11:23N 51°34' W 002°58'0 0.0
2017-Mar-17 10:33N 51°34' W 002°58'1 0.5
2017-Mar-17 09:31N 51°33' W 002°58'5 4.9
2017-Mar-17 08:33N 51°29' W 003°01'44 1.3
2017-Mar-15 21:23N 51°23' W 004°11'131 6.9
2017-Mar-15 02:24N 53°34' W 003°53'1112.4
2017-Mar-15 01:33N 53°34' W 003°35'1211.7
2017-Mar-15 00:33N 53°32' W 003°16'9 8.7
2017-Mar-14 23:34N 53°28' W 003°03'7 6.8
2017-Mar-14 22:33N 53°22' W 002°58'3 2.6
2017-Mar-14 21:33N 53°19' W 002°57'4 4.4
2017-Mar-14 20:33N 53°17' W 002°50'4 4.4
2017-Mar-14 19:33N 53°20' W 002°45'0 0.0
2017-Mar-14 18:34N 53°20' W 002°45'0 0.0
2017-Mar-14 17:33N 53°20' W 002°45'0 0.0
2017-Mar-14 16:33N 53°20' W 002°45'0 0.0
2017-Mar-14 15:34N 53°20' W 002°45'0 0.0
2017-Mar-14 14:33N 53°20' W 002°45'0 0.0
2017-Mar-14 13:33N 53°20' W 002°45'0 0.0
2017-Mar-14 12:33N 53°20' W 002°45'0 0.0
2017-Mar-14 11:34N 53°20' W 002°45'0 0.0
2017-Mar-14 10:33N 53°20' W 002°45'0 0.0
2017-Mar-14 09:34N 53°20' W 002°45'0 0.0
2017-Mar-14 08:33N 53°20' W 002°45'0 0.0
2017-Mar-14 07:33N 53°20' W 002°45'0 0.0
2017-Mar-14 06:33N 53°20' W 002°45'0 0.0
2017-Mar-14 05:34N 53°20' W 002°45'0 0.0
2017-Mar-14 04:33N 53°20' W 002°45'0 0.0
2017-Mar-14 03:34N 53°20' W 002°45'0 0.0
2017-Mar-14 02:33N 53°20' W 002°45'0 0.0
2017-Mar-14 01:33N 53°20' W 002°45'0 0.0
2017-Mar-14 00:34N 53°20' W 002°45'2 2.2
2017-Mar-13 23:34N 53°18' W 002°46'5 4.8
2017-Mar-13 22:33N 53°18' W 002°54'0 0.0
2017-Mar-13 21:32N 53°18' W 002°54'0 0.0
2017-Mar-13 20:29N 53°18' W 002°54'0 0.0
2017-Mar-13 19:26N 53°18' W 002°54'0 0.0
2017-Mar-13 18:29N 53°18' W 002°54'0 0.0
2017-Mar-13 17:29N 53°18' W 002°54'0 0.0
2017-Mar-13 16:32N 53°18' W 002°54'0 0.0
2017-Mar-13 15:32N 53°18' W 002°54'0 0.0
2017-Mar-13 14:32N 53°18' W 002°54'0 0.0
2017-Mar-13 13:29N 53°18' W 002°54'0 0.0
2017-Mar-13 12:26N 53°18' W 002°54'0 0.0
2017-Mar-13 11:32N 53°18' W 002°54'0 0.0
2017-Mar-13 10:23N 53°18' W 002°54'0 0.0
2017-Mar-13 09:29N 53°18' W 002°54'0 0.0
2017-Mar-13 08:29N 53°18' W 002°54'0 0.0
2017-Mar-13 07:14N 53°18' W 002°54'0 0.0
2017-Mar-13 06:29N 53°18' W 002°54'0 0.0
2017-Mar-13 05:32N 53°18' W 002°54'0 0.0
2017-Mar-13 04:32N 53°18' W 002°54'0 0.0
2017-Mar-13 03:32N 53°18' W 002°54'0 0.0
2017-Mar-13 02:29N 53°18' W 002°54'0 0.0
2017-Mar-13 01:32N 53°18' W 002°54'0 0.0
2017-Mar-13 00:32N 53°18' W 002°54'0 0.0
2017-Mar-12 23:29N 53°18' W 002°54'0 0.0
2017-Mar-12 22:26N 53°18' W 002°54'0 0.0
2017-Mar-12 21:32N 53°18' W 002°54'0 0.0
2017-Mar-12 20:23N 53°18' W 002°54'0 0.0
2017-Mar-12 19:32N 53°18' W 002°54'0 0.0
2017-Mar-12 18:32N 53°18' W 002°54'0 0.0
2017-Mar-12 17:32N 53°18' W 002°54'0 0.0
2017-Mar-12 16:32N 53°18' W 002°54'0 0.0
2017-Mar-12 15:29N 53°18' W 002°54'0 0.0
2017-Mar-12 14:32N 53°18' W 002°54'0 0.0
2017-Mar-12 13:32N 53°18' W 002°54'0 0.0
2017-Mar-12 12:32N 53°18' W 002°54'0 0.0
2017-Mar-12 11:32N 53°18' W 002°54'0 0.0
2017-Mar-12 10:11N 53°18' W 002°54'0 0.0
2017-Mar-12 09:32N 53°18' W 002°54'0 0.0
2017-Mar-12 08:32N 53°18' W 002°54'0 0.0
2017-Mar-12 07:32N 53°18' W 002°54'0 0.0
2017-Mar-12 06:32N 53°18' W 002°54'0 0.0
2017-Mar-12 05:29N 53°18' W 002°54'0 0.0
2017-Mar-12 04:23N 53°18' W 002°54'0 0.0
2017-Mar-12 03:32N 53°18' W 002°54'0 0.0
2017-Mar-12 02:26N 53°18' W 002°54'0 0.0
2017-Mar-12 01:32N 53°18' W 002°54'0 0.0
2017-Mar-12 00:29N 53°18' W 002°54'0 0.0
2017-Mar-11 23:32N 53°18' W 002°54'0 0.0
2017-Mar-11 22:29N 53°18' W 002°54'0 0.0
2017-Mar-11 21:32N 53°18' W 002°54'0 0.0
2017-Mar-11 20:32N 53°18' W 002°54'0 0.0
2017-Mar-11 19:32N 53°18' W 002°54'0 0.0
2017-Mar-11 18:32N 53°18' W 002°54'0 0.0
2017-Mar-11 17:32N 53°18' W 002°54'0 0.0
2017-Mar-11 16:32N 53°18' W 002°54'0 0.0
2017-Mar-11 15:23N 53°18' W 002°54'0 0.0
2017-Mar-11 14:32N 53°18' W 002°54'0 0.0
2017-Mar-11 13:32N 53°18' W 002°54'0 0.0
2017-Mar-11 12:32N 53°18' W 002°54'0 0.0
2017-Mar-11 11:29N 53°18' W 002°54'0 0.0
2017-Mar-11 10:32N 53°18' W 002°54'0 0.0
2017-Mar-11 09:26N 53°18' W 002°54'0 0.0
2017-Mar-11 08:32N 53°18' W 002°54'0 0.0
2017-Mar-11 07:29N 53°18' W 002°54'0 0.0
2017-Mar-11 06:32N 53°18' W 002°54'0 0.0
2017-Mar-11 05:32N 53°18' W 002°54'0 0.0
2017-Mar-11 04:32N 53°18' W 002°54'0 0.0
2017-Mar-11 03:14N 53°18' W 002°54'0 0.0
2017-Mar-11 02:32N 53°18' W 002°54'0 0.0
2017-Mar-11 01:32N 53°18' W 002°54'0 0.0
2017-Mar-11 00:32N 53°18' W 002°54'0 0.0
2017-Mar-10 23:32N 53°18' W 002°54'0 0.0
2017-Mar-10 22:26N 53°18' W 002°54'0 0.0
2017-Mar-10 21:32N 53°18' W 002°54'0 0.0
2017-Mar-10 20:32N 53°18' W 002°54'0 0.0
2017-Mar-10 19:32N 53°18' W 002°54'0 0.0
2017-Mar-10 18:26N 53°18' W 002°54'0 0.0
2017-Mar-10 17:32N 53°18' W 002°54'0 0.0
2017-Mar-10 16:32N 53°18' W 002°54'0 0.0
2017-Mar-10 15:26N 53°18' W 002°54'0 0.0
2017-Mar-10 14:26N 53°18' W 002°54'0 0.0
2017-Mar-10 13:32N 53°18' W 002°54'0 0.0
2017-Mar-10 12:32N 53°18' W 002°54'0 0.0
2017-Mar-10 11:29N 53°18' W 002°54'  
Track history (hours):
 
Tides and Currents Weather Stations Pressure Air Temp Water Temp Dewpoint Dewpoint Depression Visibility Wind Speed Wind Dir Waves Ship Positions

Laida

Last reported at 2017-Mar-20 11:18 UTC. Time now 2017-Mar-25 17:22 UTC.
Position N 50°34' W 005°47'.

Length 100 m; draft 5.2 m.

Type: Ship (hazmat cat B). MMSI: 224509000.

Date/timePositionNaut miles runAvg speedWind from/ knotsBaromVisibWave heightAir tempDewpointWater temp
2017-Mar-20 11:18N 50°34' W 005°47'6 8.6
2017-Mar-20 10:33N 50°38' W 005°38'8 7.9
2017-Mar-20 09:33N 50°43' W 005°29'7 7.1
2017-Mar-20 08:33N 50°47' W 005°20'8 7.6
2017-Mar-20 07:33N 50°51' W 005°10'9 8.5
2017-Mar-20 06:33N 50°56' W 004°59'9 9.3
2017-Mar-20 05:33N 51°02' W 004°47'10 9.6
2017-Mar-20 04:31N 51°08' W 004°35'5711.5
2017-Mar-19 23:33N 51°26' W 003°08'9 9.2
2017-Mar-19 22:33N 51°33' W 002°58'1 0.1
2017-Mar-19 15:13N 51°34' W 002°58'0 0.0
2017-Mar-19 13:22N 51°34' W 002°58'0 0.0
2017-Mar-19 12:22N 51°34' W 002°58'0 0.0
2017-Mar-19 11:28N 51°34' W 002°58'0 0.0
2017-Mar-19 08:25N 51°34' W 002°58'0 0.0
2017-Mar-19 07:19N 51°34' W 002°58'0 0.0
2017-Mar-19 06:31N 51°34' W 002°58'0 0.0
2017-Mar-19 05:31N 51°34' W 002°58'0 0.0
2017-Mar-19 04:19N 51°34' W 002°58'0 0.0
2017-Mar-19 03:31N 51°34' W 002°58'0 0.0
2017-Mar-19 02:31N 51°34' W 002°58'0 0.0
2017-Mar-19 01:25N 51°34' W 002°58'0 0.0
2017-Mar-19 00:31N 51°34' W 002°58'0 0.0
2017-Mar-18 23:25N 51°34' W 002°58'0 0.0
2017-Mar-18 14:31N 51°34' W 002°58'0 0.0
2017-Mar-18 11:28N 51°34' W 002°58'0 0.0
2017-Mar-18 10:31N 51°34' W 002°58'0 0.2
2017-Mar-18 09:33N 51°34' W 002°58'0 0.1
2017-Mar-18 07:33N 51°34' W 002°58'0 0.0
2017-Mar-18 06:33N 51°34' W 002°58'0 0.0
2017-Mar-18 05:29N 51°34' W 002°58'0 0.0
2017-Mar-18 04:33N 51°34' W 002°58'0 0.0
2017-Mar-18 03:33N 51°34' W 002°58'0 0.0
2017-Mar-18 02:33N 51°34' W 002°58'0 0.0
2017-Mar-18 01:33N 51°34' W 002°58'0 0.0
2017-Mar-18 00:33N 51°34' W 002°58'0 0.0
2017-Mar-17 23:29N 51°34' W 002°58'0 0.0
2017-Mar-17 22:33N 51°34' W 002°58'0 0.0
2017-Mar-17 21:33N 51°34' W 002°58'0 0.0
2017-Mar-17 20:05N 51°34' W 002°58'0 0.0
2017-Mar-17 19:29N 51°34' W 002°58'0 0.0
2017-Mar-17 18:23N 51°34' W 002°58'0 0.0
2017-Mar-17 17:29N 51°34' W 002°58'0 0.0
2017-Mar-17 16:29N 51°34' W 002°58'0 0.0
2017-Mar-17 15:33N 51°34' W 002°58'0 0.0
2017-Mar-17 14:23N 51°34' W 002°58'0 0.0
2017-Mar-17 13:29N 51°34' W 002°58'0 0.0
2017-Mar-17 12:33N 51°34' W 002°58'0 0.0
2017-Mar-17 11:23N 51°34' W 002°58'0 0.0
2017-Mar-17 10:33N 51°34' W 002°58'1 0.5
2017-Mar-17 09:31N 51°33' W 002°58'5 4.9
2017-Mar-17 08:33N 51°29' W 003°01'44 1.3
2017-Mar-15 21:23N 51°23' W 004°11'131 6.9
2017-Mar-15 02:24N 53°34' W 003°53'1112.4
2017-Mar-15 01:33N 53°34' W 003°35'1211.7
2017-Mar-15 00:33N 53°32' W 003°16'9 8.7
2017-Mar-14 23:34N 53°28' W 003°03'7 6.8
2017-Mar-14 22:33N 53°22' W 002°58'3 2.6
2017-Mar-14 21:33N 53°19' W 002°57'4 4.4
2017-Mar-14 20:33N 53°17' W 002°50'4 4.4
2017-Mar-14 19:33N 53°20' W 002°45'0 0.0
2017-Mar-14 18:34N 53°20' W 002°45'0 0.0
2017-Mar-14 17:33N 53°20' W 002°45'0 0.0
2017-Mar-14 16:33N 53°20' W 002°45'0 0.0
2017-Mar-14 15:34N 53°20' W 002°45'0 0.0
2017-Mar-14 14:33N 53°20' W 002°45'0 0.0
2017-Mar-14 13:33N 53°20' W 002°45'0 0.0
2017-Mar-14 12:33N 53°20' W 002°45'0 0.0
2017-Mar-14 11:34N 53°20' W 002°45'0 0.0
2017-Mar-14 10:33N 53°20' W 002°45'0 0.0
2017-Mar-14 09:34N 53°20' W 002°45'0 0.0
2017-Mar-14 08:33N 53°20' W 002°45'0 0.0
2017-Mar-14 07:33N 53°20' W 002°45'0 0.0
2017-Mar-14 06:33N 53°20' W 002°45'0 0.0
2017-Mar-14 05:34N 53°20' W 002°45'0 0.0
2017-Mar-14 04:33N 53°20' W 002°45'0 0.0
2017-Mar-14 03:34N 53°20' W 002°45'0 0.0
2017-Mar-14 02:33N 53°20' W 002°45'0 0.0
2017-Mar-14 01:33N 53°20' W 002°45'0 0.0
2017-Mar-14 00:34N 53°20' W 002°45'2 2.2
2017-Mar-13 23:34N 53°18' W 002°46'5 4.8
2017-Mar-13 22:33N 53°18' W 002°54'0 0.0
2017-Mar-13 21:32N 53°18' W 002°54'0 0.0
2017-Mar-13 20:29N 53°18' W 002°54'0 0.0
2017-Mar-13 19:26N 53°18' W 002°54'0 0.0
2017-Mar-13 18:29N 53°18' W 002°54'0 0.0
2017-Mar-13 17:29N 53°18' W 002°54'0 0.0
2017-Mar-13 16:32N 53°18' W 002°54'0 0.0
2017-Mar-13 15:32N 53°18' W 002°54'0 0.0
2017-Mar-13 14:32N 53°18' W 002°54'0 0.0
2017-Mar-13 13:29N 53°18' W 002°54'0 0.0
2017-Mar-13 12:26N 53°18' W 002°54'0 0.0
2017-Mar-13 11:32N 53°18' W 002°54'0 0.0
2017-Mar-13 10:23N 53°18' W 002°54'0 0.0
2017-Mar-13 09:29N 53°18' W 002°54'0 0.0
2017-Mar-13 08:29N 53°18' W 002°54'0 0.0
2017-Mar-13 07:14N 53°18' W 002°54'0 0.0
2017-Mar-13 06:29N 53°18' W 002°54'0 0.0
2017-Mar-13 05:32N 53°18' W 002°54'0 0.0
2017-Mar-13 04:32N 53°18' W 002°54'0 0.0
2017-Mar-13 03:32N 53°18' W 002°54'0 0.0
2017-Mar-13 02:29N 53°18' W 002°54'0 0.0
2017-Mar-13 01:32N 53°18' W 002°54'0 0.0
2017-Mar-13 00:32N 53°18' W 002°54'0 0.0
2017-Mar-12 23:29N 53°18' W 002°54'0 0.0
2017-Mar-12 22:26N 53°18' W 002°54'0 0.0
2017-Mar-12 21:32N 53°18' W 002°54'0 0.0
2017-Mar-12 20:23N 53°18' W 002°54'0 0.0
2017-Mar-12 19:32N 53°18' W 002°54'0 0.0
2017-Mar-12 18:32N 53°18' W 002°54'0 0.0
2017-Mar-12 17:32N 53°18' W 002°54'0 0.0
2017-Mar-12 16:32N 53°18' W 002°54'0 0.0
2017-Mar-12 15:29N 53°18' W 002°54'0 0.0
2017-Mar-12 14:32N 53°18' W 002°54'0 0.0
2017-Mar-12 13:32N 53°18' W 002°54'0 0.0
2017-Mar-12 12:32N 53°18' W 002°54'0 0.0
2017-Mar-12 11:32N 53°18' W 002°54'0 0.0
2017-Mar-12 10:11N 53°18' W 002°54'0 0.0
2017-Mar-12 09:32N 53°18' W 002°54'0 0.0
2017-Mar-12 08:32N 53°18' W 002°54'0 0.0
2017-Mar-12 07:32N 53°18' W 002°54'0 0.0
2017-Mar-12 06:32N 53°18' W 002°54'0 0.0
2017-Mar-12 05:29N 53°18' W 002°54'0 0.0
2017-Mar-12 04:23N 53°18' W 002°54'0 0.0
2017-Mar-12 03:32N 53°18' W 002°54'0 0.0
2017-Mar-12 02:26N 53°18' W 002°54'0 0.0
2017-Mar-12 01:32N 53°18' W 002°54'0 0.0
2017-Mar-12 00:29N 53°18' W 002°54'0 0.0
2017-Mar-11 23:32N 53°18' W 002°54'0 0.0
2017-Mar-11 22:29N 53°18' W 002°54'0 0.0
2017-Mar-11 21:32N 53°18' W 002°54'0 0.0
2017-Mar-11 20:32N 53°18' W 002°54'0 0.0
2017-Mar-11 19:32N 53°18' W 002°54'0 0.0
2017-Mar-11 18:32N 53°18' W 002°54'0 0.0
2017-Mar-11 17:32N 53°18' W 002°54'0 0.0
2017-Mar-11 16:32N 53°18' W 002°54'0 0.0
2017-Mar-11 15:23N 53°18' W 002°54'0 0.0
2017-Mar-11 14:32N 53°18' W 002°54'0 0.0
2017-Mar-11 13:32N 53°18' W 002°54'0 0.0
2017-Mar-11 12:32N 53°18' W 002°54'0 0.0
2017-Mar-11 11:29N 53°18' W 002°54'0 0.0
2017-Mar-11 10:32N 53°18' W 002°54'0 0.0
2017-Mar-11 09:26N 53°18' W 002°54'0 0.0
2017-Mar-11 08:32N 53°18' W 002°54'0 0.0
2017-Mar-11 07:29N 53°18' W 002°54'0 0.0
2017-Mar-11 06:32N 53°18' W 002°54'0 0.0
2017-Mar-11 05:32N 53°18' W 002°54'0 0.0
2017-Mar-11 04:32N 53°18' W 002°54'0 0.0
2017-Mar-11 03:14N 53°18' W 002°54'0 0.0
2017-Mar-11 02:32N 53°18' W 002°54'0 0.0
2017-Mar-11 01:32N 53°18' W 002°54'0 0.0
2017-Mar-11 00:32N 53°18' W 002°54'0 0.0
2017-Mar-10 23:32N 53°18' W 002°54'0 0.0
2017-Mar-10 22:26N 53°18' W 002°54'0 0.0
2017-Mar-10 21:32N 53°18' W 002°54'0 0.0
2017-Mar-10 20:32N 53°18' W 002°54'0 0.0
2017-Mar-10 19:32N 53°18' W 002°54'0 0.0
2017-Mar-10 18:26N 53°18' W 002°54'0 0.0
2017-Mar-10 17:32N 53°18' W 002°54'0 0.0
2017-Mar-10 16:32N 53°18' W 002°54'0 0.0
2017-Mar-10 15:26N 53°18' W 002°54'0 0.0
2017-Mar-10 14:26N 53°18' W 002°54'0 0.0
2017-Mar-10 13:32N 53°18' W 002°54'0 0.0
2017-Mar-10 12:32N 53°18' W 002°54'0 0.0
2017-Mar-10 11:29N 53°18' W 002°54'  

Dump ship's entire track history